Terminal Aerodrome Forecast
Issued by NWS

Home | Current Version | Previous Version | Text Only | Print | Product List | Glossary On
Versions: 1 2 3 4 5 6 7 8 9 10 11 12 13
000
FTUS45 KFGZ 241734
TAFSEZ
TAF
KSEZ 241734Z 2418/2518 VRB05KT P6SM BKN050 BKN100
     FM250300 VRB06KT P6SM OVC060=

USA.gov is the U.S. government's official web portal to all federal, state and local government web resources and services.